Columbia (CAE/KCAE)

Map

Destinations

Information

Location
Columbia, SC
Local Time
07:50 / 7:50 am
GMT Time
12:50 / 12:50 pm
Gates
Unassigned
No FAA reported delays
METAR KCAE 161156Z 08004KT 1/2SM FG VV002 13/12 A3032 RMK AO2 SLP268 T01330122 10144 20128 53012 RVRNO
TAF KCAE 161125Z 1612/1712 09004KT 1/2SM FG OVC002 FM161600 09004KT 3SM BR OVC008 FM161800 10004KT P6SM BKN012 FM162000 10005KT P6SM SCT025 FM170200 10004KT 3SM BR BKN012 FM170600 12004KT 1SM BR OVC005
  • No charts available